sensor_id;sensor_type;location;lat;lon;timestamp;P1;durP1;ratioP1;P2;durP2;ratioP2
76423;SDS011;65257;52.104;4.268;2023-04-15T00:00:49;7.35;;;3.75;;
76423;SDS011;65257;52.104;4.268;2023-04-15T00:03:17;5.97;;;3.70;;
76423;SDS011;65257;52.104;4.268;2023-04-15T00:05:43;7.40;;;3.03;;
76423;SDS011;65257;52.104;4.268;2023-04-15T00:08:09;10.25;;;4.30;;
76423;SDS011;65257;52.104;4.268;2023-04-15T00:10:43;13.20;;;4.50;;
76423;SDS011;65257;52.104;4.268;2023-04-15T00:13:10;7.07;;;3.88;;
76423;SDS011;65257;52.104;4.268;2023-04-15T00:15:36;4.88;;;3.22;;
76423;SDS011;65257;52.104;4.268;2023-04-15T00:18:02;8.77;;;4.20;;
76423;SDS011;65257;52.104;4.268;2023-04-15T00:20:28;7.70;;;4.70;;
76423;SDS011;65257;52.104;4.268;2023-04-15T00:22:54;7.68;;;3.85;;
76423;SDS011;65257;52.104;4.268;2023-04-15T00:25:25;6.75;;;3.67;;
76423;SDS011;65257;52.104;4.268;2023-04-15T00:27:51;6.93;;;4.07;;
76423;SDS011;65257;52.104;4.268;2023-04-15T00:30:19;5.00;;;4.35;;
76423;SDS011;65257;52.104;4.268;2023-04-15T00:32:45;4.97;;;3.78;;
76423;SDS011;65257;52.104;4.268;2023-04-15T00:35:14;7.15;;;3.97;;
76423;SDS011;65257;52.104;4.268;2023-04-15T00:37:39;8.23;;;4.60;;
76423;SDS011;65257;52.104;4.268;2023-04-15T00:40:11;5.65;;;4.70;;
76423;SDS011;65257;52.104;4.268;2023-04-15T00:42:46;8.75;;;5.28;;
76423;SDS011;65257;52.104;4.268;2023-04-15T00:45:15;7.13;;;4.95;;
76423;SDS011;65257;52.104;4.268;2023-04-15T00:47:53;8.55;;;5.63;;
76423;SDS011;65257;52.104;4.268;2023-04-15T00:50:18;9.48;;;5.45;;
76423;SDS011;65257;52.104;4.268;2023-04-15T00:52:43;10.00;;;5.85;;
76423;SDS011;65257;52.104;4.268;2023-04-15T00:55:09;7.65;;;5.15;;
76423;SDS011;65257;52.104;4.268;2023-04-15T00:57:35;8.13;;;5.40;;
76423;SDS011;65257;52.104;4.268;2023-04-15T01:00:06;8.18;;;5.20;;
76423;SDS011;65257;52.104;4.268;2023-04-15T01:02:35;7.80;;;5.35;;
76423;SDS011;65257;52.104;4.268;2023-04-15T01:05:01;8.85;;;6.65;;
76423;SDS011;65257;52.104;4.268;2023-04-15T01:07:33;8.23;;;5.53;;
76423;SDS011;65257;52.104;4.268;2023-04-15T01:09:58;7.30;;;4.07;;
76423;SDS011;65257;52.104;4.268;2023-04-15T01:12:25;5.15;;;3.97;;
76423;SDS011;65257;52.104;4.268;2023-04-15T01:14:52;7.47;;;5.60;;
76423;SDS011;65257;52.104;4.268;2023-04-15T01:17:26;7.28;;;4.63;;
76423;SDS011;65257;52.104;4.268;2023-04-15T01:22:44;7.13;;;5.32;;
76423;SDS011;65257;52.104;4.268;2023-04-15T01:28:06;8.02;;;5.22;;
76423;SDS011;65257;52.104;4.268;2023-04-15T01:30:33;8.35;;;4.85;;
76423;SDS011;65257;52.104;4.268;2023-04-15T01:32:59;6.93;;;4.70;;
76423;SDS011;65257;52.104;4.268;2023-04-15T01:35:25;7.70;;;5.25;;
76423;SDS011;65257;52.104;4.268;2023-04-15T01:37:52;7.30;;;5.43;;
76423;SDS011;65257;52.104;4.268;2023-04-15T01:40:18;6.03;;;3.92;;
76423;SDS011;65257;52.104;4.268;2023-04-15T01:42:44;6.18;;;5.05;;
76423;SDS011;65257;52.104;4.268;2023-04-15T01:45:10;6.88;;;4.85;;
76423;SDS011;65257;52.104;4.268;2023-04-15T01:47:37;5.93;;;5.03;;
76423;SDS011;65257;52.104;4.268;2023-04-15T01:50:02;12.45;;;5.20;;
76423;SDS011;65257;52.104;4.268;2023-04-15T01:52:31;5.53;;;4.38;;
76423;SDS011;65257;52.104;4.268;2023-04-15T01:54:56;12.88;;;5.20;;
76423;SDS011;65257;52.104;4.268;2023-04-15T01:57:22;7.90;;;4.10;;
76423;SDS011;65257;52.104;4.268;2023-04-15T01:59:47;5.85;;;5.03;;
76423;SDS011;65257;52.104;4.268;2023-04-15T02:02:13;5.95;;;4.45;;
76423;SDS011;65257;52.104;4.268;2023-04-15T02:04:40;9.55;;;5.13;;
76423;SDS011;65257;52.104;4.268;2023-04-15T02:07:05;8.48;;;4.85;;
76423;SDS011;65257;52.104;4.268;2023-04-15T02:09:31;5.88;;;4.18;;
76423;SDS011;65257;52.104;4.268;2023-04-15T02:11:59;7.90;;;5.00;;
76423;SDS011;65257;52.104;4.268;2023-04-15T02:14:25;9.10;;;4.75;;
76423;SDS011;65257;52.104;4.268;2023-04-15T02:16:51;7.97;;;4.97;;
76423;SDS011;65257;52.104;4.268;2023-04-15T02:19:19;6.20;;;4.57;;
76423;SDS011;65257;52.104;4.268;2023-04-15T02:21:44;8.20;;;4.95;;
76423;SDS011;65257;52.104;4.268;2023-04-15T02:24:15;8.63;;;4.43;;
76423;SDS011;65257;52.104;4.268;2023-04-15T02:26:41;6.15;;;3.67;;
76423;SDS011;65257;52.104;4.268;2023-04-15T02:29:06;8.07;;;5.40;;
76423;SDS011;65257;52.104;4.268;2023-04-15T02:31:32;11.35;;;5.90;;
76423;SDS011;65257;52.104;4.268;2023-04-15T02:34:00;10.68;;;6.30;;
76423;SDS011;65257;52.104;4.268;2023-04-15T02:36:31;7.40;;;5.40;;
76423;SDS011;65257;52.104;4.268;2023-04-15T02:38:57;7.05;;;4.78;;
76423;SDS011;65257;52.104;4.268;2023-04-15T02:41:25;8.23;;;5.95;;
76423;SDS011;65257;52.104;4.268;2023-04-15T02:43:52;8.98;;;5.70;;
76423;SDS011;65257;52.104;4.268;2023-04-15T02:46:18;9.30;;;5.43;;
76423;SDS011;65257;52.104;4.268;2023-04-15T02:48:43;6.50;;;5.68;;
76423;SDS011;65257;52.104;4.268;2023-04-15T02:53:38;7.88;;;5.68;;
76423;SDS011;65257;52.104;4.268;2023-04-15T02:56:03;10.57;;;6.15;;
76423;SDS011;65257;52.104;4.268;2023-04-15T02:58:30;10.77;;;5.82;;
76423;SDS011;65257;52.104;4.268;2023-04-15T03:00:55;9.80;;;6.07;;
76423;SDS011;65257;52.104;4.268;2023-04-15T03:03:21;9.70;;;6.15;;
76423;SDS011;65257;52.104;4.268;2023-04-15T03:05:52;9.00;;;6.10;;
76423;SDS011;65257;52.104;4.268;2023-04-15T03:08:17;13.18;;;6.75;;
76423;SDS011;65257;52.104;4.268;2023-04-15T03:10:51;8.27;;;5.53;;
76423;SDS011;65257;52.104;4.268;2023-04-15T03:13:17;5.63;;;3.80;;
76423;SDS011;65257;52.104;4.268;2023-04-15T03:15:46;8.93;;;6.55;;
76423;SDS011;65257;52.104;4.268;2023-04-15T03:18:12;9.00;;;6.03;;
76423;SDS011;65257;52.104;4.268;2023-04-15T03:20:38;12.63;;;6.57;;
76423;SDS011;65257;52.104;4.268;2023-04-15T03:23:03;8.38;;;6.32;;
76423;SDS011;65257;52.104;4.268;2023-04-15T03:25:29;11.20;;;6.55;;
76423;SDS011;65257;52.104;4.268;2023-04-15T03:27:55;9.55;;;5.30;;
76423;SDS011;65257;52.104;4.268;2023-04-15T03:30:20;10.15;;;5.68;;
76423;SDS011;65257;52.104;4.268;2023-04-15T03:32:46;8.27;;;4.70;;
76423;SDS011;65257;52.104;4.268;2023-04-15T03:35:11;7.53;;;3.88;;
76423;SDS011;65257;52.104;4.268;2023-04-15T03:37:37;8.05;;;5.90;;
76423;SDS011;65257;52.104;4.268;2023-04-15T03:40:02;8.30;;;5.72;;
76423;SDS011;65257;52.104;4.268;2023-04-15T03:42:28;7.57;;;4.97;;
76423;SDS011;65257;52.104;4.268;2023-04-15T03:44:59;6.60;;;5.47;;
76423;SDS011;65257;52.104;4.268;2023-04-15T03:47:25;8.70;;;4.78;;
76423;SDS011;65257;52.104;4.268;2023-04-15T03:49:50;8.75;;;5.40;;
76423;SDS011;65257;52.104;4.268;2023-04-15T03:52:16;9.43;;;5.55;;
76423;SDS011;65257;52.104;4.268;2023-04-15T03:54:41;6.72;;;5.15;;
76423;SDS011;65257;52.104;4.268;2023-04-15T03:57:07;7.63;;;5.70;;
76423;SDS011;65257;52.104;4.268;2023-04-15T03:59:32;7.57;;;5.10;;
76423;SDS011;65257;52.104;4.268;2023-04-15T04:02:01;7.32;;;5.25;;
76423;SDS011;65257;52.104;4.268;2023-04-15T04:04:26;11.98;;;5.28;;
76423;SDS011;65257;52.104;4.268;2023-04-15T04:06:52;8.25;;;5.30;;
76423;SDS011;65257;52.104;4.268;2023-04-15T04:09:17;7.90;;;5.20;;
76423;SDS011;65257;52.104;4.268;2023-04-15T04:11:53;10.20;;;4.90;;
76423;SDS011;65257;52.104;4.268;2023-04-15T04:14:18;6.43;;;4.60;;
76423;SDS011;65257;52.104;4.268;2023-04-15T04:16:44;7.07;;;5.18;;
76423;SDS011;65257;52.104;4.268;2023-04-15T04:19:19;8.20;;;6.38;;
76423;SDS011;65257;52.104;4.268;2023-04-15T04:21:49;10.07;;;6.00;;
76423;SDS011;65257;52.104;4.268;2023-04-15T04:24:26;13.18;;;5.93;;
76423;SDS011;65257;52.104;4.268;2023-04-15T04:27:06;7.93;;;4.65;;
76423;SDS011;65257;52.104;4.268;2023-04-15T04:29:35;10.40;;;6.00;;
76423;SDS011;65257;52.104;4.268;2023-04-15T04:32:03;9.20;;;4.28;;
76423;SDS011;65257;52.104;4.268;2023-04-15T04:34:32;9.75;;;5.60;;
76423;SDS011;65257;52.104;4.268;2023-04-15T04:36:57;10.95;;;6.07;;
76423;SDS011;65257;52.104;4.268;2023-04-15T04:39:22;8.25;;;5.70;;
76423;SDS011;65257;52.104;4.268;2023-04-15T04:41:50;10.13;;;5.72;;
76423;SDS011;65257;52.104;4.268;2023-04-15T04:44:16;9.65;;;6.07;;
76423;SDS011;65257;52.104;4.268;2023-04-15T04:46:42;7.15;;;4.53;;
76423;SDS011;65257;52.104;4.268;2023-04-15T04:49:08;10.13;;;7.45;;
76423;SDS011;65257;52.104;4.268;2023-04-15T04:51:53;8.88;;;5.45;;
76423;SDS011;65257;52.104;4.268;2023-04-15T04:54:22;9.85;;;6.30;;
76423;SDS011;65257;52.104;4.268;2023-04-15T04:56:47;9.02;;;3.80;;
76423;SDS011;65257;52.104;4.268;2023-04-15T04:59:13;12.23;;;6.05;;
76423;SDS011;65257;52.104;4.268;2023-04-15T05:01:38;8.95;;;5.32;;
76423;SDS011;65257;52.104;4.268;2023-04-15T05:04:04;7.20;;;4.18;;
76423;SDS011;65257;52.104;4.268;2023-04-15T05:06:32;8.38;;;4.85;;
76423;SDS011;65257;52.104;4.268;2023-04-15T05:09:03;9.10;;;6.00;;
76423;SDS011;65257;52.104;4.268;2023-04-15T05:11:32;9.52;;;5.28;;
76423;SDS011;65257;52.104;4.268;2023-04-15T05:14:01;9.50;;;5.32;;
76423;SDS011;65257;52.104;4.268;2023-04-15T05:16:44;9.25;;;5.97;;
76423;SDS011;65257;52.104;4.268;2023-04-15T05:19:09;10.73;;;7.03;;
76423;SDS011;65257;52.104;4.268;2023-04-15T05:21:35;23.50;;;6.10;;
76423;SDS011;65257;52.104;4.268;2023-04-15T05:24:04;10.57;;;6.65;;
76423;SDS011;65257;52.104;4.268;2023-04-15T05:26:31;9.75;;;6.70;;
76423;SDS011;65257;52.104;4.268;2023-04-15T05:28:58;8.80;;;5.75;;
76423;SDS011;65257;52.104;4.268;2023-04-15T05:31:25;14.05;;;6.93;;
76423;SDS011;65257;52.104;4.268;2023-04-15T05:33:51;9.55;;;5.78;;
76423;SDS011;65257;52.104;4.268;2023-04-15T05:36:19;11.45;;;6.47;;
76423;SDS011;65257;52.104;4.268;2023-04-15T05:38:48;9.70;;;6.55;;
76423;SDS011;65257;52.104;4.268;2023-04-15T05:41:13;7.90;;;5.45;;
76423;SDS011;65257;52.104;4.268;2023-04-15T05:43:40;10.38;;;7.05;;
76423;SDS011;65257;52.104;4.268;2023-04-15T05:46:08;9.48;;;6.00;;
76423;SDS011;65257;52.104;4.268;2023-04-15T05:48:34;11.25;;;6.50;;
76423;SDS011;65257;52.104;4.268;2023-04-15T05:50:59;10.20;;;6.93;;
76423;SDS011;65257;52.104;4.268;2023-04-15T05:53:25;8.80;;;6.15;;
76423;SDS011;65257;52.104;4.268;2023-04-15T05:55:51;10.00;;;5.75;;
76423;SDS011;65257;52.104;4.268;2023-04-15T05:58:16;10.18;;;6.32;;
76423;SDS011;65257;52.104;4.268;2023-04-15T06:00:44;11.75;;;5.95;;
76423;SDS011;65257;52.104;4.268;2023-04-15T06:03:16;10.27;;;6.38;;
76423;SDS011;65257;52.104;4.268;2023-04-15T06:05:42;9.73;;;5.20;;
76423;SDS011;65257;52.104;4.268;2023-04-15T06:08:09;11.40;;;6.82;;
76423;SDS011;65257;52.104;4.268;2023-04-15T06:10:35;13.32;;;7.28;;
76423;SDS011;65257;52.104;4.268;2023-04-15T06:13:04;8.73;;;4.90;;
76423;SDS011;65257;52.104;4.268;2023-04-15T06:15:33;10.90;;;6.80;;
76423;SDS011;65257;52.104;4.268;2023-04-15T06:18:01;10.55;;;7.10;;
76423;SDS011;65257;52.104;4.268;2023-04-15T06:20:27;12.38;;;6.20;;
76423;SDS011;65257;52.104;4.268;2023-04-15T06:22:55;10.23;;;6.40;;
76423;SDS011;65257;52.104;4.268;2023-04-15T06:25:21;9.93;;;6.35;;
76423;SDS011;65257;52.104;4.268;2023-04-15T06:27:47;8.48;;;6.03;;
76423;SDS011;65257;52.104;4.268;2023-04-15T06:30:18;12.05;;;6.97;;
76423;SDS011;65257;52.104;4.268;2023-04-15T06:32:44;10.45;;;6.57;;
76423;SDS011;65257;52.104;4.268;2023-04-15T06:35:10;13.73;;;7.72;;
76423;SDS011;65257;52.104;4.268;2023-04-15T06:37:36;10.13;;;6.97;;
76423;SDS011;65257;52.104;4.268;2023-04-15T06:40:01;10.48;;;6.95;;
76423;SDS011;65257;52.104;4.268;2023-04-15T06:42:29;10.25;;;6.85;;
76423;SDS011;65257;52.104;4.268;2023-04-15T06:44:58;8.73;;;6.53;;
76423;SDS011;65257;52.104;4.268;2023-04-15T06:47:23;9.65;;;6.45;;
76423;SDS011;65257;52.104;4.268;2023-04-15T06:49:49;10.38;;;6.47;;
76423;SDS011;65257;52.104;4.268;2023-04-15T06:52:14;10.00;;;6.43;;
76423;SDS011;65257;52.104;4.268;2023-04-15T06:54:40;9.07;;;6.28;;
76423;SDS011;65257;52.104;4.268;2023-04-15T06:57:06;9.82;;;6.65;;
76423;SDS011;65257;52.104;4.268;2023-04-15T07:02:03;9.37;;;6.47;;
76423;SDS011;65257;52.104;4.268;2023-04-15T07:04:28;8.43;;;6.32;;
76423;SDS011;65257;52.104;4.268;2023-04-15T07:06:55;13.20;;;6.65;;
76423;SDS011;65257;52.104;4.268;2023-04-15T07:09:22;10.20;;;6.47;;
76423;SDS011;65257;52.104;4.268;2023-04-15T07:11:48;9.18;;;5.88;;
76423;SDS011;65257;52.104;4.268;2023-04-15T07:14:17;9.57;;;6.38;;
76423;SDS011;65257;52.104;4.268;2023-04-15T07:16:42;9.40;;;6.68;;
76423;SDS011;65257;52.104;4.268;2023-04-15T07:19:11;8.50;;;6.18;;
76423;SDS011;65257;52.104;4.268;2023-04-15T07:21:36;9.45;;;6.32;;
76423;SDS011;65257;52.104;4.268;2023-04-15T07:24:02;9.98;;;5.97;;
76423;SDS011;65257;52.104;4.268;2023-04-15T07:26:31;9.50;;;5.15;;
76423;SDS011;65257;52.104;4.268;2023-04-15T07:29:02;9.02;;;5.22;;
76423;SDS011;65257;52.104;4.268;2023-04-15T07:31:27;10.30;;;6.03;;
76423;SDS011;65257;52.104;4.268;2023-04-15T07:33:53;11.23;;;5.50;;
76423;SDS011;65257;52.104;4.268;2023-04-15T07:36:18;7.97;;;5.38;;
76423;SDS011;65257;52.104;4.268;2023-04-15T07:38:44;9.02;;;5.72;;
76423;SDS011;65257;52.104;4.268;2023-04-15T07:41:19;7.30;;;5.28;;
76423;SDS011;65257;52.104;4.268;2023-04-15T07:43:47;6.05;;;4.88;;
76423;SDS011;65257;52.104;4.268;2023-04-15T07:46:14;7.03;;;5.10;;
76423;SDS011;65257;52.104;4.268;2023-04-15T07:48:42;8.15;;;5.95;;
76423;SDS011;65257;52.104;4.268;2023-04-15T07:51:08;6.18;;;4.93;;
76423;SDS011;65257;52.104;4.268;2023-04-15T07:53:34;6.25;;;4.85;;
76423;SDS011;65257;52.104;4.268;2023-04-15T07:56:03;7.57;;;5.55;;
76423;SDS011;65257;52.104;4.268;2023-04-15T07:58:29;7.15;;;5.07;;
76423;SDS011;65257;52.104;4.268;2023-04-15T08:00:55;7.97;;;5.43;;
76423;SDS011;65257;52.104;4.268;2023-04-15T08:03:21;7.72;;;5.18;;
76423;SDS011;65257;52.104;4.268;2023-04-15T08:05:47;6.32;;;4.97;;
76423;SDS011;65257;52.104;4.268;2023-04-15T08:08:22;9.32;;;5.43;;
76423;SDS011;65257;52.104;4.268;2023-04-15T08:10:48;7.13;;;5.30;;
76423;SDS011;65257;52.104;4.268;2023-04-15T08:13:14;7.18;;;5.57;;
76423;SDS011;65257;52.104;4.268;2023-04-15T08:15:43;8.52;;;5.00;;
76423;SDS011;65257;52.104;4.268;2023-04-15T08:18:18;8.27;;;4.50;;
76423;SDS011;65257;52.104;4.268;2023-04-15T08:20:43;8.15;;;5.88;;
76423;SDS011;65257;52.104;4.268;2023-04-15T08:23:09;8.13;;;5.40;;
76423;SDS011;65257;52.104;4.268;2023-04-15T08:25:41;7.97;;;5.68;;
76423;SDS011;65257;52.104;4.268;2023-04-15T08:28:07;8.23;;;5.85;;
76423;SDS011;65257;52.104;4.268;2023-04-15T08:30:32;9.13;;;6.68;;
76423;SDS011;65257;52.104;4.268;2023-04-15T08:33:01;7.53;;;5.75;;
76423;SDS011;65257;52.104;4.268;2023-04-15T08:35:27;9.75;;;6.13;;
76423;SDS011;65257;52.104;4.268;2023-04-15T08:37:52;8.90;;;5.85;;
76423;SDS011;65257;52.104;4.268;2023-04-15T08:40:19;7.93;;;5.57;;
76423;SDS011;65257;52.104;4.268;2023-04-15T08:42:48;9.75;;;6.50;;
76423;SDS011;65257;52.104;4.268;2023-04-15T08:45:24;9.00;;;6.15;;
76423;SDS011;65257;52.104;4.268;2023-04-15T08:47:54;9.45;;;6.10;;
76423;SDS011;65257;52.104;4.268;2023-04-15T08:52:52;8.52;;;5.80;;
76423;SDS011;65257;52.104;4.268;2023-04-15T08:55:19;11.65;;;5.45;;
76423;SDS011;65257;52.104;4.268;2023-04-15T08:57:55;8.40;;;5.40;;
76423;SDS011;65257;52.104;4.268;2023-04-15T09:00:21;7.65;;;5.57;;
76423;SDS011;65257;52.104;4.268;2023-04-15T09:02:47;10.30;;;5.82;;
76423;SDS011;65257;52.104;4.268;2023-04-15T09:05:12;8.75;;;5.43;;
76423;SDS011;65257;52.104;4.268;2023-04-15T09:07:41;7.38;;;5.05;;
76423;SDS011;65257;52.104;4.268;2023-04-15T09:10:16;7.57;;;5.35;;
76423;SDS011;65257;52.104;4.268;2023-04-15T09:12:44;9.82;;;5.95;;
76423;SDS011;65257;52.104;4.268;2023-04-15T09:15:10;7.38;;;4.45;;
76423;SDS011;65257;52.104;4.268;2023-04-15T09:17:41;6.32;;;4.93;;
76423;SDS011;65257;52.104;4.268;2023-04-15T09:20:13;11.02;;;6.43;;
76423;SDS011;65257;52.104;4.268;2023-04-15T09:22:43;8.80;;;4.95;;
76423;SDS011;65257;52.104;4.268;2023-04-15T09:30:19;7.80;;;4.93;;
76423;SDS011;65257;52.104;4.268;2023-04-15T09:32:58;9.15;;;5.60;;
76423;SDS011;65257;52.104;4.268;2023-04-15T09:35:32;11.38;;;5.03;;
76423;SDS011;65257;52.104;4.268;2023-04-15T09:38:08;6.40;;;4.43;;
76423;SDS011;65257;52.104;4.268;2023-04-15T09:40:38;6.78;;;4.18;;
76423;SDS011;65257;52.104;4.268;2023-04-15T09:43:06;6.18;;;4.30;;
76423;SDS011;65257;52.104;4.268;2023-04-15T09:45:47;9.32;;;5.05;;
76423;SDS011;65257;52.104;4.268;2023-04-15T09:48:23;10.45;;;5.45;;
76423;SDS011;65257;52.104;4.268;2023-04-15T09:50:59;8.07;;;5.18;;
76423;SDS011;65257;52.104;4.268;2023-04-15T09:53:26;9.40;;;5.32;;
76423;SDS011;65257;52.104;4.268;2023-04-15T09:55:53;7.88;;;5.07;;
76423;SDS011;65257;52.104;4.268;2023-04-15T09:58:26;9.93;;;5.30;;
76423;SDS011;65257;52.104;4.268;2023-04-15T10:00:56;7.93;;;5.00;;
76423;SDS011;65257;52.104;4.268;2023-04-15T10:06:09;11.23;;;5.10;;
76423;SDS011;65257;52.104;4.268;2023-04-15T10:08:35;8.32;;;4.55;;
76423;SDS011;65257;52.104;4.268;2023-04-15T10:11:03;8.40;;;4.93;;
76423;SDS011;65257;52.104;4.268;2023-04-15T10:13:39;10.07;;;4.75;;
76423;SDS011;65257;52.104;4.268;2023-04-15T10:16:13;8.95;;;4.53;;
76423;SDS011;65257;52.104;4.268;2023-04-15T10:18:47;8.35;;;5.18;;
76423;SDS011;65257;52.104;4.268;2023-04-15T10:24:04;8.00;;;4.50;;
76423;SDS011;65257;52.104;4.268;2023-04-15T10:26:33;10.07;;;4.35;;
76423;SDS011;65257;52.104;4.268;2023-04-15T10:28:59;8.15;;;4.57;;
76423;SDS011;65257;52.104;4.268;2023-04-15T10:31:27;8.55;;;4.57;;
76423;SDS011;65257;52.104;4.268;2023-04-15T10:33:53;9.75;;;5.22;;
76423;SDS011;65257;52.104;4.268;2023-04-15T10:36:21;8.43;;;4.30;;
76423;SDS011;65257;52.104;4.268;2023-04-15T10:38:47;9.15;;;4.60;;
76423;SDS011;65257;52.104;4.268;2023-04-15T10:43:53;7.63;;;3.63;;
76423;SDS011;65257;52.104;4.268;2023-04-15T10:46:24;6.63;;;3.45;;
76423;SDS011;65257;52.104;4.268;2023-04-15T10:49:12;7.60;;;3.53;;
76423;SDS011;65257;52.104;4.268;2023-04-15T10:51:40;5.07;;;3.35;;
76423;SDS011;65257;52.104;4.268;2023-04-15T10:54:14;9.52;;;3.60;;
76423;SDS011;65257;52.104;4.268;2023-04-15T10:59:38;13.77;;;5.13;;
76423;SDS011;65257;52.104;4.268;2023-04-15T11:05:14;11.20;;;6.35;;
76423;SDS011;65257;52.104;4.268;2023-04-15T11:08:01;12.90;;;6.07;;
76423;SDS011;65257;52.104;4.268;2023-04-15T11:12:57;14.27;;;5.93;;
76423;SDS011;65257;52.104;4.268;2023-04-15T11:15:41;21.88;;;6.20;;
76423;SDS011;65257;52.104;4.268;2023-04-15T11:18:51;14.23;;;5.50;;
76423;SDS011;65257;52.104;4.268;2023-04-15T11:21:09;16.52;;;5.38;;
76423;SDS011;65257;52.104;4.268;2023-04-15T11:23:38;14.43;;;5.65;;
76423;SDS011;65257;52.104;4.268;2023-04-15T11:26:12;22.77;;;6.15;;
76423;SDS011;65257;52.104;4.268;2023-04-15T11:28:42;13.98;;;5.20;;
76423;SDS011;65257;52.104;4.268;2023-04-15T11:31:15;10.63;;;5.35;;
76423;SDS011;65257;52.104;4.268;2023-04-15T11:33:45;12.57;;;4.80;;
76423;SDS011;65257;52.104;4.268;2023-04-15T11:36:31;19.70;;;4.47;;
76423;SDS011;65257;52.104;4.268;2023-04-15T11:38:57;25.70;;;6.38;;
76423;SDS011;65257;52.104;4.268;2023-04-15T11:41:23;23.98;;;6.55;;
76423;SDS011;65257;52.104;4.268;2023-04-15T11:43:52;23.40;;;7.20;;
76423;SDS011;65257;52.104;4.268;2023-04-15T11:46:17;19.75;;;6.65;;
76423;SDS011;65257;52.104;4.268;2023-04-15T11:48:46;25.77;;;6.25;;
76423;SDS011;65257;52.104;4.268;2023-04-15T11:51:12;27.80;;;7.28;;
76423;SDS011;65257;52.104;4.268;2023-04-15T11:53:51;20.08;;;7.55;;
76423;SDS011;65257;52.104;4.268;2023-04-15T11:56:23;31.85;;;7.32;;
76423;SDS011;65257;52.104;4.268;2023-04-15T11:58:54;34.63;;;8.55;;
76423;SDS011;65257;52.104;4.268;2023-04-15T12:01:35;34.92;;;7.25;;
76423;SDS011;65257;52.104;4.268;2023-04-15T12:04:14;33.55;;;7.93;;
76423;SDS011;65257;52.104;4.268;2023-04-15T12:06:49;42.67;;;7.18;;
76423;SDS011;65257;52.104;4.268;2023-04-15T12:09:15;36.40;;;6.97;;
76423;SDS011;65257;52.104;4.268;2023-04-15T12:11:42;42.47;;;8.30;;
76423;SDS011;65257;52.104;4.268;2023-04-15T12:19:40;31.23;;;8.50;;
76423;SDS011;65257;52.104;4.268;2023-04-15T12:22:08;30.65;;;7.10;;
76423;SDS011;65257;52.104;4.268;2023-04-15T12:24:38;40.50;;;8.45;;
76423;SDS011;65257;52.104;4.268;2023-04-15T12:27:05;48.58;;;9.93;;
76423;SDS011;65257;52.104;4.268;2023-04-15T12:29:35;40.53;;;9.80;;
76423;SDS011;65257;52.104;4.268;2023-04-15T12:34:47;39.47;;;10.52;;
76423;SDS011;65257;52.104;4.268;2023-04-15T12:37:15;28.63;;;9.60;;
76423;SDS011;65257;52.104;4.268;2023-04-15T12:39:44;41.15;;;9.25;;
76423;SDS011;65257;52.104;4.268;2023-04-15T12:42:16;49.22;;;9.80;;
76423;SDS011;65257;52.104;4.268;2023-04-15T12:44:42;38.15;;;7.72;;
76423;SDS011;65257;52.104;4.268;2023-04-15T12:47:11;42.72;;;8.55;;
76423;SDS011;65257;52.104;4.268;2023-04-15T12:49:37;25.98;;;6.10;;
76423;SDS011;65257;52.104;4.268;2023-04-15T12:52:03;40.63;;;7.68;;
76423;SDS011;65257;52.104;4.268;2023-04-15T12:54:31;23.15;;;6.63;;
76423;SDS011;65257;52.104;4.268;2023-04-15T12:56:57;34.63;;;7.93;;
76423;SDS011;65257;52.104;4.268;2023-04-15T12:59:28;22.60;;;5.50;;
76423;SDS011;65257;52.104;4.268;2023-04-15T13:01:54;22.52;;;5.15;;
76423;SDS011;65257;52.104;4.268;2023-04-15T13:04:21;23.27;;;5.65;;
76423;SDS011;65257;52.104;4.268;2023-04-15T13:06:47;23.25;;;5.60;;
76423;SDS011;65257;52.104;4.268;2023-04-15T13:09:18;36.78;;;6.45;;
76423;SDS011;65257;52.104;4.268;2023-04-15T13:11:47;26.48;;;5.68;;
76423;SDS011;65257;52.104;4.268;2023-04-15T13:14:22;23.50;;;6.07;;
76423;SDS011;65257;52.104;4.268;2023-04-15T13:16:51;30.98;;;5.63;;
76423;SDS011;65257;52.104;4.268;2023-04-15T13:19:19;22.63;;;5.38;;
76423;SDS011;65257;52.104;4.268;2023-04-15T13:21:45;27.83;;;5.85;;
76423;SDS011;65257;52.104;4.268;2023-04-15T13:24:13;31.80;;;5.78;;
76423;SDS011;65257;52.104;4.268;2023-04-15T13:26:39;32.72;;;6.68;;
76423;SDS011;65257;52.104;4.268;2023-04-15T13:29:09;42.85;;;7.30;;
76423;SDS011;65257;52.104;4.268;2023-04-15T13:31:36;22.92;;;7.97;;
76423;SDS011;65257;52.104;4.268;2023-04-15T13:34:04;20.83;;;5.32;;
76423;SDS011;65257;52.104;4.268;2023-04-15T13:36:31;24.90;;;5.80;;
76423;SDS011;65257;52.104;4.268;2023-04-15T13:38:56;19.92;;;5.55;;
76423;SDS011;65257;52.104;4.268;2023-04-15T13:41:25;17.33;;;5.55;;
76423;SDS011;65257;52.104;4.268;2023-04-15T13:43:50;14.93;;;4.55;;
76423;SDS011;65257;52.104;4.268;2023-04-15T13:46:16;21.30;;;4.78;;
76423;SDS011;65257;52.104;4.268;2023-04-15T13:48:41;21.10;;;5.32;;
76423;SDS011;65257;52.104;4.268;2023-04-15T13:51:10;17.38;;;4.40;;
76423;SDS011;65257;52.104;4.268;2023-04-15T13:53:38;22.00;;;5.53;;
76423;SDS011;65257;52.104;4.268;2023-04-15T13:56:07;18.23;;;4.50;;
76423;SDS011;65257;52.104;4.268;2023-04-15T13:58:36;23.08;;;4.20;;
76423;SDS011;65257;52.104;4.268;2023-04-15T14:01:07;19.10;;;4.80;;
76423;SDS011;65257;52.104;4.268;2023-04-15T14:03:33;19.42;;;4.80;;
76423;SDS011;65257;52.104;4.268;2023-04-15T14:06:05;21.17;;;4.82;;
76423;SDS011;65257;52.104;4.268;2023-04-15T14:08:31;22.83;;;5.47;;
76423;SDS011;65257;52.104;4.268;2023-04-15T14:11:02;16.65;;;4.78;;
76423;SDS011;65257;52.104;4.268;2023-04-15T14:13:28;29.42;;;5.93;;
76423;SDS011;65257;52.104;4.268;2023-04-15T14:15:56;28.20;;;4.47;;
76423;SDS011;65257;52.104;4.268;2023-04-15T14:18:22;33.90;;;7.10;;
76423;SDS011;65257;52.104;4.268;2023-04-15T14:20:50;28.88;;;5.45;;
76423;SDS011;65257;52.104;4.268;2023-04-15T14:23:17;34.30;;;8.30;;
76423;SDS011;65257;52.104;4.268;2023-04-15T14:25:49;25.38;;;6.13;;
76423;SDS011;65257;52.104;4.268;2023-04-15T14:28:24;18.08;;;5.50;;
76423;SDS011;65257;52.104;4.268;2023-04-15T14:30:49;37.17;;;8.00;;
76423;SDS011;65257;52.104;4.268;2023-04-15T14:33:24;14.85;;;4.63;;
76423;SDS011;65257;52.104;4.268;2023-04-15T14:35:53;29.42;;;6.88;;
76423;SDS011;65257;52.104;4.268;2023-04-15T14:38:21;19.95;;;5.28;;
76423;SDS011;65257;52.104;4.268;2023-04-15T14:40:47;31.63;;;6.07;;
76423;SDS011;65257;52.104;4.268;2023-04-15T14:43:13;18.33;;;5.00;;
76423;SDS011;65257;52.104;4.268;2023-04-15T14:45:40;19.90;;;5.43;;
76423;SDS011;65257;52.104;4.268;2023-04-15T14:48:06;14.65;;;5.53;;
76423;SDS011;65257;52.104;4.268;2023-04-15T14:50:34;18.20;;;6.95;;
76423;SDS011;65257;52.104;4.268;2023-04-15T14:53:00;22.52;;;5.00;;
76423;SDS011;65257;52.104;4.268;2023-04-15T14:55:25;21.80;;;4.45;;
76423;SDS011;65257;52.104;4.268;2023-04-15T14:57:55;21.13;;;5.47;;
76423;SDS011;65257;52.104;4.268;2023-04-15T15:00:24;16.30;;;3.58;;
76423;SDS011;65257;52.104;4.268;2023-04-15T15:02:49;18.85;;;5.63;;
76423;SDS011;65257;52.104;4.268;2023-04-15T15:05:15;19.80;;;5.93;;
76423;SDS011;65257;52.104;4.268;2023-04-15T15:07:52;16.25;;;6.00;;
76423;SDS011;65257;52.104;4.268;2023-04-15T15:10:18;17.73;;;5.50;;
76423;SDS011;65257;52.104;4.268;2023-04-15T15:12:51;26.15;;;5.78;;
76423;SDS011;65257;52.104;4.268;2023-04-15T15:15:17;18.63;;;6.53;;
76423;SDS011;65257;52.104;4.268;2023-04-15T15:17:42;23.42;;;6.50;;
76423;SDS011;65257;52.104;4.268;2023-04-15T15:20:08;18.05;;;5.18;;
76423;SDS011;65257;52.104;4.268;2023-04-15T15:22:35;18.92;;;6.05;;
76423;SDS011;65257;52.104;4.268;2023-04-15T15:25:00;15.85;;;4.45;;
76423;SDS011;65257;52.104;4.268;2023-04-15T15:27:29;19.58;;;5.28;;
76423;SDS011;65257;52.104;4.268;2023-04-15T15:29:55;8.30;;;3.90;;